.
WxDataArchive / Data Records for 2014-05-08
2014-05-07 May 2014 2014-05-09

Data Records for Thursday, 08 May 2014

Time	Temp	Chill	HIndex	Humid	Dewpt	 Wind 	HiWind	WindDir	Rain 	Barom
-----	----	-----	------	-----	-----	------	------	-------	-----	-----
00:00	55.7	55.7	55.7	73	47.2	1	3	112	0.00	29.911 
00:05	55.4	55.4	55.4	73	46.9	1	4	112	0.00	29.911 
00:10	55.3	55.3	55.3	73	46.8	0	2	112	0.00	29.911 
00:15	55.0	55.0	55.0	73	46.5	2	4	90	0.00	29.906 
00:20	54.8	54.8	54.8	73	46.3	2	5	112	0.00	29.906 
00:25	54.7	54.7	54.7	73	46.2	1	3	112	0.00	29.906 
00:30	54.5	54.5	54.5	73	46.0	1	3	112	0.00	29.904 
00:35	54.4	54.4	54.4	73	45.9	1	3	112	0.00	29.904 
00:40	54.2	54.2	54.2	74	46.1	1	4	112	0.00	29.904 
00:45	54.1	54.1	54.1	74	46.0	1	3	112	0.00	29.903 
00:50	53.9	53.9	53.9	74	45.8	1	4	112	0.00	29.903 
00:55	53.8	53.8	53.8	75	46.1	1	2	112	0.00	29.903 
01:00	53.6	53.6	53.6	75	45.9	0	1	112	0.00	29.908 
01:05	53.6	53.6	53.6	75	45.9	0	2	112	0.00	29.908 
01:10	53.5	53.5	53.5	75	45.8	0	2	112	0.00	29.908 
01:15	53.5	53.5	53.5	75	45.8	1	3	112	0.00	29.905 
01:20	53.5	53.5	53.5	75	45.8	1	3	112	0.00	29.905 
01:25	53.5	53.5	53.5	75	45.8	0	1	112	0.00	29.905 
01:30	53.5	53.5	53.5	75	45.8	1	3	112	0.00	29.907 
01:35	53.3	53.3	53.3	75	45.6	0	2	112	0.00	29.907 
01:40	53.3	53.3	53.3	75	45.6	0	2	112	0.00	29.907 
01:45	53.2	53.2	53.2	75	45.5	0	0	---	0.00	29.907 
01:50	53.2	53.2	53.2	75	45.5	0	1	112	0.00	29.907 
01:55	53.1	53.1	53.1	76	45.7	0	1	112	0.00	29.907 
02:00	52.9	52.9	52.9	76	45.5	0	2	112	0.00	29.908 
02:05	52.9	52.9	52.9	76	45.5	0	2	112	0.00	29.908 
02:10	52.8	52.8	52.8	76	45.4	0	1	112	0.00	29.908 
02:15	52.6	52.6	52.6	77	45.6	0	1	112	0.00	29.905 
02:20	52.5	52.5	52.5	77	45.5	0	2	112	0.00	29.905 
02:25	52.3	52.3	52.3	77	45.3	0	3	112	0.00	29.905 
02:30	52.2	52.2	52.2	78	45.5	0	1	112	0.00	29.907 
02:35	52.2	52.2	52.2	78	45.5	0	0	---	0.00	29.907 
02:40	51.9	51.9	51.9	78	45.3	0	0	---	0.00	29.907 
02:45	51.7	51.7	51.7	79	45.4	0	0	---	0.00	29.905 
02:50	51.6	51.6	51.6	79	45.3	0	0	---	0.00	29.905 
02:55	51.4	51.4	51.4	79	45.1	0	1	112	0.00	29.905 
03:00	51.3	51.3	51.3	80	45.3	0	1	112	0.00	29.907 
03:05	51.3	51.3	51.3	80	45.3	0	1	112	0.00	29.907 
03:10	51.3	51.3	51.3	80	45.3	0	3	112	0.00	29.907 
03:15	51.1	51.1	51.1	80	45.1	1	3	112	0.00	29.906 
03:20	51.1	51.1	51.1	81	45.5	0	3	112	0.00	29.906 
03:25	51.3	51.3	51.3	81	45.7	0	1	112	0.00	29.906 
03:30	51.1	51.1	51.1	81	45.5	0	3	112	0.00	29.908 
03:35	51.1	51.1	51.1	81	45.5	0	2	112	0.00	29.908 
03:40	51.3	51.3	51.3	81	45.7	0	2	112	0.00	29.908 
03:45	51.3	51.3	51.3	81	45.7	0	0	---	0.00	29.914 
03:50	51.3	51.3	51.3	81	45.7	0	0	---	0.00	29.914 
03:55	51.1	51.1	51.1	81	45.5	0	1	112	0.00	29.914 
04:00	51.1	51.1	51.1	81	45.5	0	1	112	0.00	29.915 
04:05	51.0	51.0	51.0	81	45.4	0	0	---	0.00	29.915 
04:10	51.0	51.0	51.0	81	45.4	0	0	---	0.00	29.915 
04:15	50.8	50.8	50.8	81	45.2	0	0	---	0.00	29.918 
04:20	50.8	50.8	50.8	81	45.2	0	1	112	0.00	29.918 
04:25	50.8	50.8	50.8	82	45.5	0	1	112	0.00	29.918 
04:30	50.8	50.8	50.8	82	45.5	0	1	112	0.00	29.916 
04:35	50.7	50.7	50.7	82	45.4	0	1	112	0.00	29.916 
04:40	50.7	50.7	50.7	82	45.4	0	0	---	0.00	29.916 
04:45	50.7	50.7	50.7	82	45.4	0	1	112	0.00	29.911 
04:50	50.5	50.5	50.5	82	45.2	0	3	112	0.00	29.911 
04:55	50.5	50.5	50.5	82	45.2	0	2	112	0.00	29.911 
05:00	50.5	50.5	50.5	83	45.5	0	1	112	0.00	29.905 
05:05	50.5	50.5	50.5	83	45.5	0	1	112	0.00	29.905 
05:10	50.4	50.4	50.4	83	45.4	0	1	112	0.00	29.905 
05:15	50.4	50.4	50.4	83	45.4	0	2	112	0.00	29.906 
05:20	50.4	50.4	50.4	83	45.4	0	1	112	0.00	29.906 
05:25	50.4	50.4	50.4	84	45.7	0	2	112	0.00	29.906 
05:30	50.4	50.4	50.4	84	45.7	0	1	112	0.00	29.904 
05:35	50.4	50.4	50.4	84	45.7	0	1	112	0.00	29.904 
05:40	50.4	50.4	50.4	84	45.7	0	1	112	0.00	29.904 
05:45	50.2	50.2	50.2	84	45.6	0	0	---	0.00	29.907 
05:50	50.2	50.2	50.2	84	45.6	0	0	---	0.00	29.907 
05:55	50.4	50.4	50.4	84	45.7	0	1	112	0.00	29.907 
06:00	50.4	50.4	50.4	84	45.7	0	0	---	0.00	29.908 
06:05	50.4	50.4	50.4	84	45.7	0	1	112	0.00	29.908 
06:10	50.4	50.4	50.4	84	45.7	0	0	---	0.00	29.908 
06:15	50.4	50.4	50.4	84	45.7	0	1	112	0.00	29.908 
06:20	50.5	50.5	50.5	84	45.8	0	1	112	0.00	29.908 
06:25	50.5	50.5	50.5	84	45.8	0	0	---	0.00	29.908 
06:30	50.7	50.7	50.7	84	46.0	0	0	---	0.00	29.919 
06:35	50.7	50.7	50.7	84	46.0	0	1	112	0.00	29.919 
06:40	50.7	50.7	50.7	84	46.0	0	0	---	0.00	29.919 
06:45	50.7	50.7	50.7	84	46.0	0	0	---	0.00	29.919 
06:50	50.8	50.8	50.8	84	46.1	0	1	112	0.00	29.919 
06:55	50.8	50.8	50.8	84	46.1	0	2	112	0.00	29.919 
07:00	51.0	51.0	51.0	84	46.3	0	2	112	0.00	29.921 
07:05	51.1	51.1	51.1	84	46.4	0	2	112	0.00	29.921 
07:10	51.3	51.3	51.3	84	46.6	0	1	112	0.00	29.921 
07:15	51.4	51.4	51.4	84	46.7	0	1	112	0.00	29.932 
07:20	51.7	51.7	51.7	84	47.0	0	0	---	0.00	29.932 
07:25	51.9	51.9	51.9	84	47.2	0	1	112	0.00	29.932 
07:30	52.2	52.2	52.2	83	47.2	0	2	112	0.00	29.937 
07:35	52.3	52.3	52.3	83	47.3	0	1	112	0.00	29.937 
07:40	52.6	52.6	52.6	83	47.6	0	0	---	0.00	29.937 
07:45	52.8	52.8	52.8	82	47.5	0	1	112	0.00	29.947 
07:50	53.1	53.1	53.1	82	47.8	0	1	112	0.00	29.947 
07:55	53.2	53.2	53.2	82	47.8	0	0	---	0.00	29.947 
08:00	53.5	53.5	53.5	82	48.1	0	0	---	0.00	29.948 
08:05	54.2	54.2	54.2	81	48.5	0	2	112	0.00	29.948 
08:10	55.0	55.0	55.0	79	48.6	0	1	112	0.00	29.948 
08:15	55.9	55.9	55.9	78	49.1	0	1	112	0.00	29.947 
08:20	57.0	57.0	57.0	77	49.9	0	1	112	0.00	29.947 
08:25	58.0	58.0	58.0	76	50.5	0	1	112	0.00	29.947 
08:30	58.6	58.6	58.6	75	50.7	0	1	112	0.00	29.942 
08:35	59.2	59.2	59.2	74	50.9	0	1	112	0.00	29.942 
08:40	59.6	59.6	59.6	74	51.3	0	0	---	0.00	29.942 
08:45	60.1	60.1	60.1	74	51.8	0	0	---	0.00	29.940 
08:50	60.9	60.9	60.9	74	52.6	0	0	---	0.00	29.940 
08:55	61.6	61.6	61.6	73	52.9	0	0	---	0.00	29.940 
09:00	62.6	62.6	62.6	72	53.4	0	3	112	0.00	29.934 
09:05	63.4	63.4	63.4	72	54.2	0	2	112	0.00	29.934 
09:10	64.2	64.2	64.2	73	55.4	0	1	112	0.00	29.934 
09:15	64.8	64.8	64.8	72	55.6	0	1	112	0.00	29.944 
09:20	65.5	65.5	65.5	72	56.2	0	0	---	0.00	29.944 
09:25	66.6	66.6	66.6	71	56.9	0	3	112	0.00	29.944 
09:30	68.1	68.1	68.1	69	57.5	0	1	112	0.00	29.943 
09:35	69.3	69.3	69.3	67	57.9	0	2	112	0.00	29.943 
09:40	70.3	70.3	70.3	67	58.8	0	1	112	0.00	29.943 
09:45	71.3	71.3	71.3	68	60.2	0	1	112	0.00	29.941 
09:50	72.1	72.1	72.1	64	59.2	1	3	225	0.00	29.941 
09:55	72.8	72.8	72.8	63	59.5	1	4	225	0.00	29.941 
10:00	73.5	73.5	73.5	62	59.7	1	5	248	0.00	29.940 
10:05	74.0	74.0	74.0	60	59.2	1	4	248	0.00	29.940 
10:10	74.2	74.2	74.2	59	58.9	2	6	248	0.00	29.940 
10:15	74.4	74.4	74.4	59	59.1	1	5	248	0.00	29.941 
10:20	74.9	74.9	74.9	60	60.1	1	4	248	0.00	29.941 
10:25	75.3	75.3	77.6	59	60.0	1	5	270	0.00	29.941 
10:30	75.6	75.6	77.8	59	60.2	1	5	292	0.00	29.926 
10:35	75.8	75.8	77.9	58	59.9	2	6	248	0.00	29.926 
10:40	76.1	76.1	78.1	57	59.7	2	7	202	0.00	29.926 
10:45	76.5	76.5	78.4	57	60.1	1	4	248	0.00	29.926 
10:50	77.0	77.0	78.7	57	60.6	1	5	270	0.00	29.926 
10:55	77.0	77.0	78.7	57	60.6	1	6	90	0.00	29.926 
11:00	77.0	77.0	78.7	55	59.6	2	9	248	0.00	29.926 
11:05	77.2	77.2	78.9	56	60.3	1	4	248	0.00	29.926 
11:10	77.4	77.4	79.0	56	60.5	2	5	248	0.00	29.926 
11:15	77.4	77.4	79.0	54	59.4	2	5	248	0.00	29.929 
11:20	77.6	77.6	79.2	56	60.6	2	6	248	0.00	29.929 
11:25	77.7	77.7	79.2	54	59.7	2	6	248	0.00	29.929 
11:30	78.1	78.1	79.6	57	61.6	1	3	248	0.00	29.929 
11:35	78.8	78.8	80.1	54	60.7	1	3	248	0.00	29.929 
11:40	79.0	79.0	80.3	54	60.9	1	4	248	0.00	29.929 
11:45	79.2	79.2	80.4	54	61.1	2	4	248	0.00	29.929 
11:50	79.2	79.2	80.4	54	61.1	1	5	248	0.00	29.929 
11:55	79.4	79.4	80.5	53	60.8	1	4	248	0.00	29.929 
12:00	79.9	79.9	81.3	56	62.8	1	4	90	0.00	29.927 
12:05	80.3	80.3	81.3	52	61.0	1	3	90	0.00	29.927 
12:10	80.3	80.3	81.2	51	60.5	1	4	315	0.00	29.927 
12:15	80.7	80.7	82.0	55	63.0	0	2	248	0.00	29.927 
12:20	80.7	80.7	82.0	55	63.0	1	4	248	0.00	29.927 
12:25	80.9	80.9	82.1	54	62.7	1	3	248	0.00	29.927 
12:30	81.4	81.4	82.4	52	62.1	0	3	248	0.00	29.927 
12:35	81.6	81.6	82.3	50	61.1	1	4	248	0.00	29.927 
12:40	81.6	81.6	82.3	50	61.1	1	4	248	0.00	29.927 
12:45	81.6	81.6	82.3	50	61.1	2	5	248	0.00	29.926 
12:50	82.0	82.0	82.9	51	62.1	1	4	248	0.00	29.926 
12:55	82.2	82.2	83.0	50	61.7	2	5	248	0.00	29.926 
13:00	82.2	82.2	82.8	49	61.1	2	5	248	0.00	29.922 
13:05	82.4	82.4	83.4	51	62.4	1	5	248	0.00	29.922 
13:10	82.8	82.8	83.7	50	62.2	2	6	90	0.00	29.922 
13:15	83.4	83.4	84.4	50	62.8	1	5	90	0.00	29.912 
13:20	83.6	83.6	84.4	49	62.4	2	8	90	0.00	29.912 
13:25	84.0	84.0	85.1	50	63.3	1	5	68	0.00	29.912 
13:30	84.1	84.1	85.0	49	62.8	1	6	248	0.00	29.909 
13:35	84.3	84.3	85.1	48	62.4	1	5	270	0.00	29.909 
13:40	84.5	84.5	85.1	47	62.0	1	4	90	0.00	29.909 
13:45	84.3	84.3	84.9	47	61.8	2	6	292	0.00	29.908 
13:50	84.5	84.5	85.1	47	62.0	2	5	270	0.00	29.908 
13:55	84.3	84.3	84.7	46	61.2	1	4	248	0.00	29.908 
14:00	84.3	84.3	85.5	50	63.6	1	3	248	0.00	29.906 
14:05	84.9	84.9	85.8	48	63.0	1	5	248	0.00	29.906 
14:10	85.3	85.3	86.1	47	62.8	1	4	248	0.00	29.906 
14:15	85.3	85.3	85.5	44	60.9	2	6	248	0.00	29.904 
14:20	85.7	85.7	86.4	46	62.5	1	3	248	0.00	29.904 
14:25	85.7	85.7	86.2	45	61.9	2	7	248	0.00	29.904 
14:30	85.9	85.9	86.9	47	63.3	1	4	202	0.00	29.897 
14:35	85.5	85.5	86.2	46	62.3	1	5	68	0.00	29.897 
14:40	84.9	84.9	85.4	46	61.8	2	10	112	0.00	29.897 
14:45	85.3	85.3	85.9	46	62.1	1	5	68	0.00	29.893 
14:50	85.7	85.7	86.4	46	62.5	2	6	90	0.00	29.893 
14:55	86.1	86.1	87.0	46	62.9	1	4	90	0.00	29.893 
15:00	86.3	86.3	87.0	45	62.4	2	6	112	0.00	29.894 
15:05	86.5	86.5	87.2	45	62.6	1	4	112	0.00	29.894 
15:10	86.5	86.5	87.0	44	62.0	1	3	338	0.00	29.894 
15:15	86.3	86.3	86.5	43	61.1	2	6	248	0.00	29.892 
15:20	86.3	86.3	86.5	43	61.1	2	5	270	0.00	29.892 
15:25	86.5	86.5	87.0	44	62.0	1	5	270	0.00	29.892 
15:30	87.0	87.0	87.6	44	62.4	1	4	90	0.00	29.883 
15:35	87.6	87.6	88.2	43	62.3	1	4	112	0.00	29.883 
15:40	87.6	87.6	87.9	42	61.6	2	7	248	0.00	29.883 
15:45	87.4	87.4	87.6	42	61.5	2	6	90	0.00	29.879 
15:50	87.4	87.4	87.9	43	62.1	1	3	90	0.00	29.879 
15:55	87.6	87.6	88.2	43	62.3	1	5	90	0.00	29.879 
16:00	87.8	87.8	87.6	40	60.4	1	6	112	0.00	29.876 
16:05	88.2	88.2	88.7	42	62.2	1	5	248	0.00	29.876 
16:10	88.4	88.4	88.2	39	60.3	2	6	248	0.00	29.876 
16:15	88.2	88.2	88.4	41	61.5	1	4	90	0.00	29.874 
16:20	88.2	88.2	88.4	41	61.5	1	2	68	0.00	29.874 
16:25	88.6	88.6	88.7	40	61.1	1	4	0	0.00	29.874 
16:30	89.0	89.0	88.7	38	60.1	1	4	292	0.00	29.860 
16:35	89.5	89.5	88.5	35	58.2	2	5	248	0.00	29.860 
16:40	89.5	89.5	89.1	37	59.7	2	5	248	0.00	29.860 
16:45	89.3	89.3	88.8	37	59.6	1	5	248	0.00	29.858 
16:50	89.3	89.3	88.8	37	59.6	2	5	45	0.00	29.858 
16:55	89.3	89.3	88.5	36	58.8	2	4	248	0.00	29.858 
17:00	89.0	89.0	88.4	37	59.3	1	4	248	0.00	29.857 
17:05	89.0	89.0	88.1	36	58.5	1	3	248	0.00	29.857 
17:10	89.0	89.0	88.4	37	59.3	1	3	270	0.00	29.857 
17:15	89.0	89.0	88.4	37	59.3	2	5	248	0.00	29.856 
17:20	88.8	88.8	87.9	36	58.4	1	3	248	0.00	29.856 
17:25	88.6	88.6	87.9	37	59.0	2	10	112	0.00	29.856 
17:30	88.6	88.6	87.6	36	58.2	1	4	248	0.00	29.853 
17:35	88.8	88.8	87.6	35	57.6	1	4	315	0.00	29.853 
17:40	89.0	89.0	87.9	35	57.7	1	6	90	0.00	29.853 
17:45	88.0	88.0	86.9	36	57.7	2	5	90	0.00	29.857 
17:50	87.4	87.4	86.4	37	57.9	1	5	90	0.00	29.857 
17:55	87.2	87.2	85.8	35	56.2	1	7	248	0.00	29.857 
18:00	87.2	87.2	85.8	35	56.2	1	4	248	0.00	29.858 
18:05	87.6	87.6	86.0	34	55.7	1	5	248	0.00	29.858 
18:10	87.4	87.4	86.0	35	56.3	1	3	270	0.00	29.858 
18:15	87.2	87.2	85.8	35	56.2	1	5	338	0.00	29.853 
18:20	87.2	87.2	86.0	36	57.0	1	4	225	0.00	29.853 
18:25	87.2	87.2	85.8	35	56.2	1	4	225	0.00	29.853 
18:30	87.4	87.4	86.2	36	57.1	2	6	270	0.00	29.855 
18:35	87.0	87.0	86.2	38	58.3	2	5	68	0.00	29.855 
18:40	86.1	86.1	85.2	38	57.5	1	4	315	0.00	29.855 
18:45	85.7	85.7	84.9	39	57.9	1	4	270	0.00	29.865 
18:50	85.3	85.3	84.5	39	57.5	1	4	45	0.00	29.865 
18:55	85.1	85.1	84.6	41	58.7	1	6	270	0.00	29.865 
19:00	84.9	84.9	84.2	40	57.8	1	4	22	0.00	29.870 
19:05	84.7	84.7	83.8	39	57.0	2	5	270	0.00	29.870 
19:10	84.7	84.7	84.0	40	57.7	1	5	270	0.00	29.870 
19:15	84.5	84.5	83.6	39	56.8	1	5	270	0.00	29.868 
19:20	84.3	84.3	83.4	39	56.6	2	7	292	0.00	29.868 
19:25	84.3	84.3	83.4	39	56.6	2	5	270	0.00	29.868 
19:30	84.1	84.1	83.2	39	56.4	1	5	248	0.00	29.877 
19:35	84.1	84.1	83.2	39	56.4	1	7	248	0.00	29.877 
19:40	84.0	84.0	83.1	39	56.3	1	6	270	0.00	29.877 
19:45	83.8	83.8	83.1	40	56.9	1	6	270	0.00	29.879 
19:50	83.4	83.4	82.7	40	56.5	1	5	270	0.00	29.879 
19:55	83.2	83.2	82.7	41	57.0	1	6	270	0.00	29.879 
20:00	82.8	82.8	82.4	42	57.3	1	5	0	0.00	29.880 
20:05	82.6	82.6	82.2	42	57.2	1	5	68	0.00	29.880 
20:10	82.4	82.4	82.2	43	57.6	0	4	45	0.00	29.880 
20:15	82.0	82.0	81.8	43	57.3	0	2	90	0.00	29.876 
20:20	81.8	81.8	81.8	44	57.7	0	2	90	0.00	29.876 
20:25	81.4	81.4	81.4	44	57.4	0	3	90	0.00	29.876 
20:30	81.1	81.1	81.3	45	57.7	0	2	90	0.00	29.879 
20:35	80.9	80.9	81.1	45	57.5	0	1	90	0.00	29.879 
20:40	80.5	80.5	80.8	46	57.8	0	2	90	0.00	29.879 
20:45	80.3	80.3	80.7	46	57.6	0	1	90	0.00	29.885 
20:50	80.1	80.1	80.6	47	58.0	0	2	90	0.00	29.885 
20:55	79.8	79.8	80.4	47	57.8	0	4	90	0.00	29.885 
21:00	79.8	79.8	80.4	47	57.8	1	5	90	0.00	29.890 
21:05	79.8	79.8	80.3	46	57.2	0	2	270	0.00	29.890 
21:10	79.8	79.8	80.3	46	57.2	1	6	270	0.00	29.890 
21:15	79.8	79.8	80.3	46	57.2	0	2	270	0.00	29.882 
21:20	79.9	79.9	80.3	45	56.6	1	5	270	0.00	29.882 
21:25	79.9	79.9	80.3	45	56.6	0	2	270	0.00	29.882 
21:30	79.9	79.9	80.3	45	56.6	1	3	270	0.00	29.883 
21:35	79.8	79.8	80.3	46	57.2	0	5	270	0.00	29.883 
21:40	79.6	79.6	80.1	46	57.0	0	2	270	0.00	29.883 
21:45	79.4	79.4	80.0	46	56.8	0	3	270	0.00	29.886 
21:50	79.0	79.0	79.7	46	56.4	0	1	270	0.00	29.886 
21:55	78.8	78.8	79.6	47	56.8	1	5	270	0.00	29.886 
22:00	78.8	78.8	79.6	47	56.8	0	2	270	0.00	29.891 
22:05	78.8	78.8	79.6	47	56.8	0	2	270	0.00	29.891 
22:10	78.5	78.5	79.5	48	57.2	0	2	270	0.00	29.891 
22:15	78.3	78.3	79.3	48	57.0	0	2	270	0.00	29.896 
22:20	78.1	78.1	79.3	49	57.4	0	2	270	0.00	29.896 
22:25	77.7	77.7	79.0	49	57.0	0	2	270	0.00	29.896 
22:30	77.4	77.4	78.8	49	56.7	0	1	270	0.00	29.896 
22:35	77.4	77.4	78.8	50	57.3	0	1	270	0.00	29.896 
22:40	77.2	77.2	78.7	50	57.1	0	1	270	0.00	29.896 
22:45	77.0	77.0	78.6	50	56.9	0	2	270	0.00	29.897 
22:50	76.7	76.7	78.4	51	57.2	0	1	270	0.00	29.897 
22:55	76.3	76.3	78.2	52	57.4	0	0	---	0.00	29.897 
23:00	76.0	76.0	78.1	52	57.1	0	1	270	0.00	29.898 
23:05	75.8	75.8	78.0	53	57.4	0	2	270	0.00	29.898 
23:10	75.4	75.4	77.8	54	57.6	0	1	270	0.00	29.898 
23:15	75.1	75.1	77.6	54	57.3	0	1	270	0.00	29.891 
23:20	74.7	74.7	74.7	54	56.9	0	1	270	0.00	29.891 
23:25	74.6	74.6	74.6	55	57.3	0	1	270	0.00	29.891 
23:30	74.2	74.2	74.2	56	57.5	0	1	270	0.00	29.884 
23:35	73.9	73.9	73.9	57	57.7	0	1	270	0.00	29.884 
23:40	73.7	73.7	73.7	57	57.5	0	1	270	0.00	29.884 
23:45	73.5	73.5	73.5	58	57.8	0	2	270	0.00	29.881 
23:50	73.3	73.3	73.3	58	57.6	0	1	270	0.00	29.881 
23:55	73.2	73.2	73.2	58	57.5	0	1	270	0.00	29.881 

CoCoRaHS
IN-AL-39
A2 Web Hosting
Creative Commons License
GoDaddy
search engine by freefind advanced

loaded 2018-11-19 19:00:46 • last modified 2010-11-18 10:43:29
Privacy PolicyDisclaimer
• wx.awcolley.com is powered by PmWiki v.2002016 •
• all content (unless otherwise noted) © 2018 A W Colley